Time;durP1;ratioP1;P1;durP2;ratioP2;P2;SDS_P1;SDS_P2;PMS_P1;PMS_P2;Temp;Humidity;BMP_temperature;BMP_pressure;BME280_temperature;BME280_humidity;BME280_pressure;Samples;Min_cycle;Max_cycle;Signal;HPM_P1;HPM_P2
2021/01/01 00:00:00;;;;;;;7.10;6.07;;;0.10;99.90;;;;;;2097345;28;20255;-70
2021/01/01 00:01:01;;;;;;;8.10;5.80;;;0.10;99.90;;;;;;2092010;28;20859;-72
2021/01/01 00:02:01;;;;;;;8.40;5.83;;;0.10;99.90;;;;;;2096743;28;20172;-71
2021/01/01 00:03:02;;;;;;;10.13;6.17;;;0.00;99.90;;;;;;2096505;28;20191;-71
2021/01/01 00:04:05;;;;;;;10.38;7.30;;;0.10;99.90;;;;;;2096789;28;20270;-74
2021/01/01 00:05:07;;;;;;;12.48;8.32;;;0.10;99.90;;;;;;2084025;28;20189;-72
2021/01/01 00:06:11;;;;;;;12.73;8.40;;;0.10;99.90;;;;;;2085449;28;20339;-69
2021/01/01 00:07:12;;;;;;;17.58;10.20;;;0.00;99.90;;;;;;2088561;28;20681;-70
2021/01/01 00:08:13;;;;;;;13.53;9.43;;;0.00;99.90;;;;;;2096587;28;20210;-70
2021/01/01 00:09:15;;;;;;;16.43;10.00;;;0.00;99.90;;;;;;2093943;28;20183;-70
2021/01/01 00:10:15;;;;;;;14.65;10.20;;;-0.10;99.90;;;;;;2088283;28;20180;-69
2021/01/01 00:11:17;;;;;;;16.43;10.37;;;-0.10;99.90;;;;;;2094192;28;20681;-71
2021/01/01 00:12:18;;;;;;;15.95;10.02;;;-0.10;99.90;;;;;;2088208;28;20187;-70
2021/01/01 00:13:19;;;;;;;17.17;11.40;;;-0.10;99.90;;;;;;2080044;28;20738;-70
2021/01/01 00:14:19;;;;;;;17.90;11.87;;;-0.10;99.90;;;;;;2088461;28;20196;-69
2021/01/01 00:15:20;;;;;;;16.27;11.30;;;-0.10;99.90;;;;;;2097179;28;20471;-71
2021/01/01 00:16:21;;;;;;;16.27;11.20;;;-0.20;99.90;;;;;;2088301;28;20264;-70
2021/01/01 00:17:21;;;;;;;18.97;11.93;;;-0.10;99.90;;;;;;2086845;28;20787;-72
2021/01/01 00:18:22;;;;;;;18.43;11.50;;;-0.10;99.90;;;;;;2087943;28;20267;-74
2021/01/01 00:19:23;;;;;;;17.77;11.07;;;-0.10;99.90;;;;;;2096569;28;20237;-71
2021/01/01 00:20:23;;;;;;;15.67;10.47;;;-0.20;99.90;;;;;;2096326;28;20704;-68
2021/01/01 00:21:31;;;;;;;18.47;12.27;;;-0.20;99.90;;;;;;2086817;28;20172;-66
2021/01/01 00:22:32;;;;;;;16.88;11.27;;;-0.20;99.90;;;;;;2080925;28;20177;-67
2021/01/01 00:23:33;;;;;;;15.53;10.63;;;-0.20;99.90;;;;;;2088315;28;20215;-67
2021/01/01 00:24:34;;;;;;;16.15;10.68;;;-0.20;99.90;;;;;;2087982;28;20680;-72
2021/01/01 00:25:35;;;;;;;17.67;11.30;;;-0.20;99.90;;;;;;2088356;28;20192;-68
2021/01/01 00:26:36;;;;;;;15.68;10.60;;;-0.20;99.90;;;;;;2095979;28;20192;-70
2021/01/01 00:27:38;;;;;;;19.77;11.60;;;-0.20;99.90;;;;;;2097306;28;20642;-67
2021/01/01 00:28:44;;;;;;;14.05;10.35;;;-0.20;99.90;;;;;;2089046;28;20230;-69
2021/01/01 00:29:45;;;;;;;14.95;10.40;;;-0.20;99.90;;;;;;2088868;28;20169;-68
2021/01/01 00:30:45;;;;;;;17.20;11.37;;;-0.10;99.90;;;;;;2094344;28;20250;-69
2021/01/01 00:31:46;;;;;;;16.87;11.23;;;-0.20;99.90;;;;;;2088111;28;20678;-68
2021/01/01 00:32:47;;;;;;;17.77;11.17;;;-0.10;99.90;;;;;;2089980;28;20187;-67
2021/01/01 00:33:50;;;;;;;15.73;10.68;;;-0.10;99.90;;;;;;2096378;28;20187;-71
2021/01/01 00:34:51;;;;;;;13.55;9.35;;;-0.10;99.90;;;;;;2090469;28;20192;-68
2021/01/01 00:35:52;;;;;;;17.67;11.45;;;-0.10;99.90;;;;;;2079826;28;20757;-67
2021/01/01 00:36:53;;;;;;;17.03;10.73;;;-0.10;99.90;;;;;;2085372;28;20185;-67
2021/01/01 00:37:53;;;;;;;16.47;11.50;;;-0.10;99.90;;;;;;2096842;28;20182;-67
2021/01/01 00:38:54;;;;;;;18.27;11.67;;;0.00;99.90;;;;;;2096096;28;20535;-67
2021/01/01 00:39:55;;;;;;;15.67;10.57;;;0.00;99.90;;;;;;2096661;28;20234;-67
2021/01/01 00:40:55;;;;;;;14.77;9.83;;;0.00;99.90;;;;;;2097034;28;20690;-67
2021/01/01 00:41:56;;;;;;;17.17;10.93;;;0.00;99.90;;;;;;2097402;28;20180;-67
2021/01/01 00:42:57;;;;;;;16.47;11.17;;;0.00;99.90;;;;;;2097245;28;20278;-67
2021/01/01 00:43:58;;;;;;;16.20;10.27;;;0.00;99.90;;;;;;2097490;28;20187;-67
2021/01/01 00:44:59;;;;;;;17.33;10.45;;;-0.10;99.90;;;;;;2097468;28;20183;-67
2021/01/01 00:46:00;;;;;;;16.67;11.20;;;-0.10;99.90;;;;;;2097310;28;20180;-67
2021/01/01 00:47:01;;;;;;;16.20;11.10;;;-0.10;99.90;;;;;;2088304;28;20318;-65
2021/01/01 00:48:02;;;;;;;16.33;10.93;;;-0.10;99.90;;;;;;2080305;28;20189;-66
2021/01/01 00:49:03;;;;;;;15.37;10.40;;;-0.10;99.90;;;;;;2080273;28;20263;-66
2021/01/01 00:50:05;;;;;;;15.10;10.63;;;0.00;99.90;;;;;;2088581;28;20670;-66
2021/01/01 00:51:05;;;;;;;15.77;10.52;;;0.00;99.90;;;;;;2097012;28;20186;-65
2021/01/01 00:52:06;;;;;;;16.00;10.27;;;0.00;99.90;;;;;;2097388;28;20183;-67
2021/01/01 00:53:07;;;;;;;15.20;10.02;;;0.00;99.90;;;;;;2097022;28;20215;-65
2021/01/01 00:54:08;;;;;;;16.17;10.80;;;0.00;99.90;;;;;;2097335;28;20207;-66
2021/01/01 00:55:09;;;;;;;19.23;11.00;;;0.00;99.90;;;;;;2097331;28;20603;-66
2021/01/01 00:56:21;;;;;;;17.02;11.18;;;0.00;99.90;;;;;;2106877;22;20234;-59
2021/01/01 00:57:22;;;;;;;16.77;10.98;;;0.00;99.90;;;;;;2089230;28;20176;-60
2021/01/01 00:58:23;;;;;;;14.17;9.93;;;0.00;99.90;;;;;;2088675;28;20177;-59
2021/01/01 00:59:24;;;;;;;15.20;10.67;;;0.00;99.90;;;;;;2088562;28;20181;-58
2021/01/01 01:00:25;;;;;;;18.13;11.57;;;0.00;99.90;;;;;;2089066;28;20547;-59
2021/01/01 01:01:27;;;;;;;17.07;10.97;;;0.00;99.90;;;;;;2088983;28;20244;-60
2021/01/01 01:02:28;;;;;;;14.98;10.05;;;0.00;99.90;;;;;;2089261;28;20242;-60
2021/01/01 01:03:28;;;;;;;18.70;11.33;;;-0.10;99.90;;;;;;2089157;28;20180;-59
2021/01/01 01:04:29;;;;;;;16.83;11.43;;;-0.10;99.90;;;;;;2089199;28;20187;-60
2021/01/01 01:05:30;;;;;;;16.17;10.90;;;-0.10;99.90;;;;;;2089418;28;20179;-60
2021/01/01 01:06:30;;;;;;;15.83;10.80;;;-0.10;99.90;;;;;;2089150;28;20192;-60
2021/01/01 01:07:31;;;;;;;18.40;12.20;;;0.00;99.90;;;;;;2089263;28;20342;-60
2021/01/01 01:08:32;;;;;;;16.77;11.03;;;0.00;99.90;;;;;;2089186;28;20233;-61
2021/01/01 01:09:32;;;;;;;16.53;10.60;;;0.00;99.90;;;;;;2089071;28;20176;-61
2021/01/01 01:10:33;;;;;;;16.70;10.80;;;0.00;99.90;;;;;;2089161;28;20456;-60
2021/01/01 01:11:34;;;;;;;16.77;10.93;;;0.10;99.90;;;;;;2089061;28;20568;-60
2021/01/01 01:12:34;;;;;;;18.63;11.77;;;0.00;99.90;;;;;;2089081;28;20191;-60
2021/01/01 01:13:35;;;;;;;16.83;11.03;;;0.00;99.90;;;;;;2089127;28;20211;-59
2021/01/01 01:14:36;;;;;;;17.27;10.30;;;-0.10;99.90;;;;;;2084584;28;20270;-59
2021/01/01 01:15:37;;;;;;;15.50;10.63;;;-0.20;99.90;;;;;;2074233;28;20260;-61
2021/01/01 01:16:37;;;;;;;15.13;10.23;;;-0.20;99.90;;;;;;2072743;28;20177;-60
2021/01/01 01:17:41;;;;;;;16.13;10.43;;;-0.20;99.90;;;;;;2072848;28;20287;-61
2021/01/01 01:18:42;;;;;;;18.25;10.85;;;-0.20;99.90;;;;;;2072642;28;20182;-61
2021/01/01 01:19:43;;;;;;;19.60;12.40;;;-0.20;99.90;;;;;;2072544;28;20247;-60
2021/01/01 01:20:43;;;;;;;24.20;14.60;;;-0.20;99.90;;;;;;2072870;28;20201;-60
2021/01/01 01:21:44;;;;;;;25.93;14.73;;;-0.20;99.90;;;;;;2073997;28;20178;-60
2021/01/01 01:22:45;;;;;;;23.70;14.40;;;-0.20;99.90;;;;;;2074174;28;20185;-58
2021/01/01 01:23:46;;;;;;;26.97;14.60;;;-0.10;99.90;;;;;;2074288;28;20181;-60
2021/01/01 01:24:47;;;;;;;23.95;14.13;;;-0.10;99.90;;;;;;2065325;28;20715;-60
2021/01/01 01:25:48;;;;;;;18.93;12.33;;;-0.10;99.90;;;;;;2065319;28;20206;-59
2021/01/01 01:26:49;;;;;;;18.30;11.70;;;-0.10;99.90;;;;;;2074343;28;20178;-60
2021/01/01 01:27:49;;;;;;;18.50;12.60;;;-0.10;99.90;;;;;;2074133;28;20316;-61
2021/01/01 01:28:50;;;;;;;20.10;11.83;;;-0.10;99.90;;;;;;2074306;28;20664;-60
2021/01/01 01:29:51;;;;;;;19.17;11.63;;;-0.10;99.90;;;;;;2074023;28;20171;-60
2021/01/01 01:30:52;;;;;;;18.90;12.33;;;-0.10;99.90;;;;;;2073832;28;20192;-60
2021/01/01 01:31:53;;;;;;;17.20;11.20;;;-0.10;99.90;;;;;;2074107;28;20177;-59
2021/01/01 01:32:53;;;;;;;19.27;12.13;;;-0.10;99.90;;;;;;2074225;28;20186;-59
2021/01/01 01:33:54;;;;;;;14.97;10.83;;;0.00;99.90;;;;;;2073818;28;20655;-59
2021/01/01 01:34:55;;;;;;;16.57;11.07;;;-0.10;99.90;;;;;;2074093;28;20182;-60
2021/01/01 01:35:55;;;;;;;17.50;11.00;;;-0.10;99.90;;;;;;2073797;28;21898;-60
2021/01/01 01:36:56;;;;;;;17.17;11.47;;;-0.20;99.90;;;;;;2074131;28;20255;-61
2021/01/01 01:37:57;;;;;;;16.03;10.27;;;-0.20;99.90;;;;;;2073838;28;20654;-60
2021/01/01 01:38:57;;;;;;;18.20;11.17;;;-0.20;99.90;;;;;;2073863;28;20189;-61
2021/01/01 01:39:58;;;;;;;16.17;10.20;;;-0.20;99.90;;;;;;2073861;28;20523;-61
2021/01/01 01:40:59;;;;;;;15.43;10.93;;;-0.20;99.90;;;;;;2073630;28;20174;-62
2021/01/01 01:41:59;;;;;;;15.87;9.67;;;-0.20;99.90;;;;;;2074047;28;20237;-61
2021/01/01 01:43:00;;;;;;;17.37;10.00;;;-0.10;99.90;;;;;;2074178;28;20606;-62
2021/01/01 01:44:01;;;;;;;18.10;11.17;;;-0.10;99.90;;;;;;2073896;28;20178;-61
2021/01/01 01:45:05;;;;;;;16.23;10.50;;;-0.10;99.90;;;;;;2074086;28;20235;-62
2021/01/01 01:46:06;;;;;;;18.20;10.80;;;-0.10;99.90;;;;;;2073644;28;20209;-61
2021/01/01 01:47:06;;;;;;;16.63;9.83;;;-0.20;99.90;;;;;;2073925;28;20189;-59
2021/01/01 01:48:12;;;;;;;18.77;11.10;;;-0.20;99.90;;;;;;2073915;28;20177;-61
2021/01/01 01:49:17;;;;;;;14.25;9.13;;;-0.20;99.90;;;;;;2065233;28;20560;-60
2021/01/01 01:50:18;;;;;;;18.85;11.85;;;-0.20;99.90;;;;;;2065753;28;20182;-62
2021/01/01 01:51:18;;;;;;;15.17;9.90;;;-0.20;99.90;;;;;;2073156;28;20173;-60
2021/01/01 01:52:20;;;;;;;16.93;11.17;;;-0.20;99.90;;;;;;2073139;28;20177;-60
2021/01/01 01:53:22;;;;;;;18.65;11.18;;;-0.20;99.90;;;;;;2065303;28;20625;-61
2021/01/01 01:54:23;;;;;;;15.13;9.82;;;-0.20;99.90;;;;;;2065171;28;20216;-59
2021/01/01 01:55:24;;;;;;;16.47;10.40;;;-0.20;99.90;;;;;;2065346;28;20182;-62
2021/01/01 01:56:25;;;;;;;20.23;11.93;;;-0.20;99.90;;;;;;2064964;28;20206;-61
2021/01/01 01:57:26;;;;;;;16.00;10.43;;;-0.30;99.90;;;;;;2065156;28;20183;-61
2021/01/01 01:58:27;;;;;;;14.30;9.53;;;-0.30;99.90;;;;;;2073876;28;20619;-60
2021/01/01 01:59:28;;;;;;;15.23;10.02;;;-0.30;99.90;;;;;;2074087;28;20416;-61
2021/01/01 02:01:36;;;;;;;23.05;13.60;;;-0.30;99.90;;;;;;2073275;28;20418;-61
2021/01/01 02:02:37;;;;;;;21.93;13.47;;;-0.30;99.90;;;;;;2065073;28;20190;-61
2021/01/01 02:03:38;;;;;;;25.90;14.35;;;-0.30;99.90;;;;;;2065212;28;20182;-61
2021/01/01 02:04:39;;;;;;;19.90;12.13;;;-0.20;99.90;;;;;;2073773;28;20186;-61
2021/01/01 02:05:40;;;;;;;17.48;10.95;;;-0.10;99.90;;;;;;2073966;28;20218;-60
2021/01/01 02:06:43;;;;;;;15.37;10.60;;;-0.10;99.90;;;;;;2073917;28;20558;-58
2021/01/01 02:07:44;;;;;;;14.60;9.50;;;-0.10;99.90;;;;;;2073927;28;20186;-60
2021/01/01 02:08:45;;;;;;;13.70;9.35;;;-0.10;99.90;;;;;;2073754;28;20212;-58
2021/01/01 02:09:46;;;;;;;14.70;10.00;;;-0.10;99.90;;;;;;2073368;28;20593;-62
2021/01/01 02:10:50;;;;;;;13.40;8.63;;;0.00;99.90;;;;;;2073119;28;20196;-62
2021/01/01 02:11:51;;;;;;;14.77;10.45;;;0.00;99.90;;;;;;2073985;28;20212;-60
2021/01/01 02:12:51;;;;;;;16.10;10.73;;;-0.10;99.90;;;;;;2065167;28;20183;-60
2021/01/01 02:13:56;;;;;;;14.80;9.87;;;-0.10;99.90;;;;;;2064864;28;20218;-60
2021/01/01 02:14:56;;;;;;;12.13;8.88;;;-0.20;99.90;;;;;;2073848;28;20184;-60
2021/01/01 02:15:57;;;;;;;15.10;9.37;;;-0.20;99.90;;;;;;2073765;28;20202;-59
2021/01/01 02:16:58;;;;;;;13.63;9.23;;;-0.20;99.90;;;;;;2073795;28;20186;-62
2021/01/01 02:17:59;;;;;;;14.07;9.53;;;-0.20;99.90;;;;;;2073789;28;20227;-61
2021/01/01 02:19:00;;;;;;;14.63;9.48;;;-0.20;99.90;;;;;;2073706;28;20216;-60
2021/01/01 02:20:07;;;;;;;16.97;10.90;;;-0.20;99.90;;;;;;2073794;28;20185;-61
2021/01/01 02:21:11;;;;;;;15.68;9.10;;;-0.20;99.90;;;;;;2073525;28;20438;-60
2021/01/01 02:22:12;;;;;;;16.27;9.65;;;-0.20;99.90;;;;;;2073812;28;20286;-60
2021/01/01 02:23:13;;;;;;;14.07;9.57;;;-0.20;99.90;;;;;;2073781;28;20192;-61
2021/01/01 02:24:13;;;;;;;15.30;10.17;;;-0.30;99.90;;;;;;2074044;28;20270;-60
2021/01/01 02:25:14;;;;;;;13.20;8.90;;;-0.30;99.90;;;;;;2073021;28;20321;-62
2021/01/01 02:26:15;;;;;;;13.13;9.07;;;-0.30;99.90;;;;;;2072979;28;20205;-61
2021/01/01 02:27:16;;;;;;;13.55;8.85;;;-0.40;99.90;;;;;;2073731;28;20181;-62
2021/01/01 02:28:17;;;;;;;12.50;8.97;;;-0.40;99.90;;;;;;2073971;28;20259;-62
2021/01/01 02:29:18;;;;;;;15.17;9.83;;;-0.40;99.90;;;;;;2073850;28;20535;-60
2021/01/01 02:30:19;;;;;;;16.90;10.57;;;-0.40;99.90;;;;;;2073671;28;20939;-60
2021/01/01 02:31:20;;;;;;;21.40;12.90;;;-0.40;99.90;;;;;;2073701;28;20190;-61
2021/01/01 02:32:21;;;;;;;25.40;15.30;;;-0.40;99.90;;;;;;2073889;28;20200;-60
2021/01/01 02:33:21;;;;;;;25.50;15.00;;;-0.40;99.90;;;;;;2073939;28;20854;-62
2021/01/01 02:34:22;;;;;;;24.23;14.87;;;-0.30;99.90;;;;;;2073756;28;20219;-60
2021/01/01 02:35:23;;;;;;;19.57;12.10;;;-0.30;99.90;;;;;;2073910;28;20554;-61
2021/01/01 02:36:24;;;;;;;22.10;13.30;;;-0.20;99.90;;;;;;2073748;28;20193;-61
2021/01/01 02:37:25;;;;;;;25.40;14.30;;;-0.30;99.90;;;;;;2073900;28;20603;-61
2021/01/01 02:38:26;;;;;;;21.88;12.93;;;-0.30;99.90;;;;;;2064941;28;20193;-61
2021/01/01 02:39:27;;;;;;;28.70;14.97;;;-0.30;99.90;;;;;;2065124;28;20186;-62
2021/01/01 02:40:27;;;;;;;31.67;16.00;;;-0.30;99.90;;;;;;2073743;28;20189;-61
2021/01/01 02:41:28;;;;;;;31.07;16.40;;;-0.30;99.90;;;;;;2073343;28;20282;-60
2021/01/01 02:42:29;;;;;;;23.57;14.03;;;-0.30;99.90;;;;;;2073617;28;20269;-62
2021/01/01 02:43:29;;;;;;;23.10;14.27;;;-0.30;99.90;;;;;;2073833;28;20253;-59
2021/01/01 02:44:30;;;;;;;21.13;12.87;;;-0.20;99.90;;;;;;2073668;28;20265;-60
2021/01/01 02:45:31;;;;;;;22.83;13.57;;;-0.20;99.90;;;;;;2073763;28;20205;-62
2021/01/01 02:46:32;;;;;;;23.23;13.60;;;-0.20;99.90;;;;;;2073452;28;20711;-59
2021/01/01 02:47:32;;;;;;;21.20;12.97;;;-0.20;99.90;;;;;;2073553;28;20174;-61
2021/01/01 02:48:33;;;;;;;17.57;10.87;;;-0.10;99.90;;;;;;2073476;28;20560;-61
2021/01/01 02:49:34;;;;;;;17.20;11.23;;;-0.20;99.90;;;;;;2073537;28;20174;-60
2021/01/01 02:50:35;;;;;;;19.03;11.43;;;-0.10;99.90;;;;;;2073776;28;20200;-61
2021/01/01 02:51:36;;;;;;;18.10;10.93;;;-0.10;99.90;;;;;;2073326;28;20173;-61
2021/01/01 02:52:36;;;;;;;18.45;11.63;;;-0.10;99.90;;;;;;2073385;28;20193;-60
2021/01/01 02:53:37;;;;;;;16.87;10.87;;;-0.10;99.90;;;;;;2073573;28;20278;-60
2021/01/01 02:54:38;;;;;;;22.10;12.53;;;-0.20;99.90;;;;;;2073488;28;20288;-61
2021/01/01 02:55:39;;;;;;;22.83;13.47;;;-0.20;99.90;;;;;;2073596;28;20870;-61
2021/01/01 02:56:40;;;;;;;23.45;13.98;;;-0.20;99.90;;;;;;2073460;28;20227;-59
2021/01/01 02:57:41;;;;;;;26.63;14.77;;;-0.20;99.90;;;;;;2073623;28;20182;-61
2021/01/01 02:58:41;;;;;;;24.80;14.33;;;-0.20;99.90;;;;;;2073452;28;20181;-62
2021/01/01 02:59:43;;;;;;;21.33;13.57;;;-0.20;99.90;;;;;;2073709;28;20186;-61
2021/01/01 03:00:49;;;;;;;21.50;13.02;;;-0.20;99.90;;;;;;2073367;28;20240;-61
2021/01/01 03:01:52;;;;;;;25.15;13.68;;;-0.20;99.90;;;;;;2073449;28;20170;-61
2021/01/01 03:02:54;;;;;;;24.92;14.18;;;-0.20;99.90;;;;;;2073133;28;20593;-59
2021/01/01 03:03:54;;;;;;;20.63;12.73;;;-0.10;99.90;;;;;;2073355;28;20682;-61
2021/01/01 03:04:55;;;;;;;23.40;13.83;;;-0.10;99.90;;;;;;2073326;28;20188;-60
2021/01/01 03:05:56;;;;;;;26.03;15.00;;;-0.10;99.90;;;;;;2073261;28;20174;-62
2021/01/01 03:06:56;;;;;;;24.23;14.97;;;-0.10;99.90;;;;;;2073262;28;20190;-61
2021/01/01 03:07:57;;;;;;;25.20;14.27;;;-0.10;99.90;;;;;;2073560;28;20185;-61
2021/01/01 03:08:58;;;;;;;22.90;13.83;;;-0.10;99.90;;;;;;2073470;28;20205;-61
2021/01/01 03:09:58;;;;;;;22.20;12.97;;;-0.10;99.90;;;;;;2073301;28;20189;-60
2021/01/01 03:10:59;;;;;;;26.73;13.60;;;0.00;99.90;;;;;;2073194;28;20724;-61
2021/01/01 03:12:00;;;;;;;22.23;13.70;;;0.00;99.90;;;;;;2073237;28;20177;-62
2021/01/01 03:13:00;;;;;;;19.90;12.50;;;0.00;99.90;;;;;;2073472;28;20204;-59
2021/01/01 03:14:01;;;;;;;19.60;12.00;;;0.00;99.90;;;;;;2073063;28;20217;-61
2021/01/01 03:15:04;;;;;;;21.03;12.53;;;-0.10;99.90;;;;;;2073338;28;20636;-62
2021/01/01 03:16:05;;;;;;;21.63;12.75;;;-0.10;99.90;;;;;;2073216;28;20206;-60
2021/01/01 03:17:06;;;;;;;18.47;11.70;;;-0.10;99.90;;;;;;2073426;28;20182;-62
2021/01/01 03:18:06;;;;;;;18.30;11.60;;;-0.10;99.90;;;;;;2078826;28;20169;-60
2021/01/01 03:19:07;;;;;;;19.33;11.63;;;-0.10;99.90;;;;;;2081480;28;20189;-59
2021/01/01 03:20:09;;;;;;;18.83;11.60;;;-0.10;99.90;;;;;;2081471;28;20608;-61
2021/01/01 03:21:10;;;;;;;16.50;11.20;;;-0.10;99.90;;;;;;2081312;28;20180;-62
2021/01/01 03:22:10;;;;;;;19.33;11.87;;;-0.10;99.90;;;;;;2081487;28;20556;-61
2021/01/01 03:23:11;;;;;;;18.80;10.83;;;-0.10;99.90;;;;;;2081432;28;20181;-61
2021/01/01 03:24:12;;;;;;;19.13;11.83;;;-0.10;99.90;;;;;;2081253;28;20212;-61
2021/01/01 03:25:13;;;;;;;23.20;12.83;;;-0.10;99.90;;;;;;2081217;28;20282;-60
2021/01/01 03:26:14;;;;;;;28.85;16.05;;;-0.20;99.90;;;;;;2081079;28;20276;-63
2021/01/01 03:27:15;;;;;;;23.05;12.70;;;-0.20;99.90;;;;;;2081424;28;20323;-61
2021/01/01 03:28:16;;;;;;;26.53;14.23;;;-0.20;99.90;;;;;;2081419;28;20235;-62
2021/01/01 03:29:17;;;;;;;23.30;13.80;;;-0.20;99.90;;;;;;2081496;28;20196;-60
2021/01/01 03:30:18;;;;;;;28.70;14.77;;;-0.20;99.90;;;;;;2081283;28;20205;-60
2021/01/01 03:31:19;;;;;;;29.17;14.63;;;-0.20;99.90;;;;;;2080949;28;20191;-61
2021/01/01 03:32:19;;;;;;;27.87;14.57;;;-0.20;99.90;;;;;;2079001;28;20215;-61
2021/01/01 03:33:20;;;;;;;21.93;12.87;;;-0.20;99.90;;;;;;2073373;28;20196;-62
2021/01/01 03:34:21;;;;;;;26.33;14.57;;;-0.10;99.90;;;;;;2072910;28;20212;-61
2021/01/01 03:35:21;;;;;;;25.17;14.23;;;-0.10;99.90;;;;;;2073442;28;20213;-61
2021/01/01 03:36:22;;;;;;;21.33;12.67;;;-0.10;99.90;;;;;;2072701;28;20198;-60
2021/01/01 03:37:23;;;;;;;21.07;12.77;;;-0.10;99.90;;;;;;2073265;28;20190;-61
2021/01/01 03:38:24;;;;;;;17.80;10.97;;;-0.20;99.90;;;;;;2073231;28;20170;-60
2021/01/01 03:39:24;;;;;;;16.00;9.90;;;-0.30;99.90;;;;;;2073081;28;20193;-61
2021/01/01 03:40:25;;;;;;;22.57;12.27;;;-0.40;99.90;;;;;;2073129;28;20166;-61
2021/01/01 03:41:26;;;;;;;23.40;14.20;;;-0.40;99.90;;;;;;2072687;28;20699;-59
2021/01/01 03:42:27;;;;;;;25.83;14.37;;;-0.40;99.90;;;;;;2073154;28;20174;-61
2021/01/01 03:43:27;;;;;;;22.53;13.43;;;-0.40;99.90;;;;;;2072624;28;20236;-61
2021/01/01 03:44:28;;;;;;;28.03;15.37;;;-0.40;99.90;;;;;;2073034;28;20715;-59
2021/01/01 03:45:29;;;;;;;30.83;16.43;;;-0.40;99.90;;;;;;2073211;28;20343;-60
2021/01/01 03:46:30;;;;;;;26.52;15.75;;;-0.40;99.90;;;;;;2072966;28;20272;-59
2021/01/01 03:47:30;;;;;;;25.70;14.13;;;-0.30;99.90;;;;;;2073041;28;20308;-60
2021/01/01 03:48:31;;;;;;;20.90;13.30;;;-0.30;99.90;;;;;;2073084;28;20202;-61
2021/01/01 03:49:32;;;;;;;26.93;15.50;;;-0.30;99.90;;;;;;2073025;28;20596;-60
2021/01/01 03:50:33;;;;;;;24.13;14.02;;;-0.30;99.90;;;;;;2073023;28;20174;-60
2021/01/01 03:51:34;;;;;;;24.40;14.07;;;-0.20;99.90;;;;;;2072920;28;20208;-60
2021/01/01 03:52:35;;;;;;;19.87;12.00;;;-0.20;99.90;;;;;;2072825;28;20197;-58
2021/01/01 03:53:36;;;;;;;17.38;12.02;;;-0.10;99.90;;;;;;2073090;28;20181;-59
2021/01/01 03:54:37;;;;;;;15.47;10.20;;;-0.10;99.90;;;;;;2073017;28;20878;-60
2021/01/01 03:55:38;;;;;;;15.83;10.17;;;-0.10;99.90;;;;;;2072982;28;20209;-62
2021/01/01 03:56:38;;;;;;;18.25;11.38;;;-0.10;99.90;;;;;;2072903;28;20196;-59
2021/01/01 03:57:40;;;;;;;16.87;10.23;;;-0.10;99.90;;;;;;2072981;28;20231;-61
2021/01/01 03:58:40;;;;;;;15.63;9.70;;;-0.10;99.90;;;;;;2073102;28;20256;-59
2021/01/01 03:59:41;;;;;;;17.93;10.97;;;-0.10;99.90;;;;;;2073198;28;20186;-62
2021/01/01 04:00:42;;;;;;;15.20;9.90;;;-0.10;99.90;;;;;;2072926;28;20549;-62
2021/01/01 04:01:42;;;;;;;12.43;8.80;;;-0.10;99.90;;;;;;2073039;28;20221;-62
2021/01/01 04:02:43;;;;;;;16.97;10.03;;;-0.10;99.90;;;;;;2073007;28;20196;-61
2021/01/01 04:03:44;;;;;;;14.50;9.60;;;-0.10;99.90;;;;;;2073113;28;20195;-61
2021/01/01 04:04:44;;;;;;;12.60;8.40;;;-0.10;99.90;;;;;;2073117;28;20565;-60
2021/01/01 04:05:45;;;;;;;16.57;10.23;;;-0.10;99.90;;;;;;2072830;28;20212;-60
2021/01/01 04:06:46;;;;;;;15.03;9.43;;;-0.10;99.90;;;;;;2073020;28;20189;-61
2021/01/01 04:07:46;;;;;;;14.90;9.43;;;-0.10;99.90;;;;;;2072999;28;20193;-59
2021/01/01 04:08:47;;;;;;;14.97;9.53;;;-0.10;99.90;;;;;;2072831;28;20185;-61
2021/01/01 04:09:48;;;;;;;14.60;9.60;;;-0.10;99.90;;;;;;2072913;28;20522;-61
2021/01/01 04:10:48;;;;;;;15.10;9.27;;;-0.10;99.90;;;;;;2072921;28;20229;-61
2021/01/01 04:11:49;;;;;;;14.77;9.33;;;-0.10;99.90;;;;;;2072884;28;20245;-60
2021/01/01 04:12:50;;;;;;;14.23;8.83;;;0.00;99.90;;;;;;2073090;28;20565;-62
2021/01/01 04:13:50;;;;;;;15.03;9.23;;;0.00;99.90;;;;;;2072826;28;20199;-61
2021/01/01 04:14:51;;;;;;;14.77;9.07;;;-0.10;99.90;;;;;;2072690;28;20210;-60
2021/01/01 04:15:52;;;;;;;13.77;9.00;;;-0.10;99.90;;;;;;2072933;28;20185;-60
2021/01/01 04:16:53;;;;;;;13.37;8.67;;;-0.10;99.90;;;;;;2072968;28;20177;-60
2021/01/01 04:17:53;;;;;;;14.80;9.23;;;-0.10;99.90;;;;;;2072929;28;20598;-60
2021/01/01 04:18:54;;;;;;;15.80;9.63;;;-0.10;99.90;;;;;;2072962;28;20188;-61
2021/01/01 04:19:55;;;;;;;13.67;8.57;;;-0.10;99.90;;;;;;2072723;28;20174;-60
2021/01/01 04:20:55;;;;;;;19.50;10.60;;;0.00;99.90;;;;;;2072629;28;20345;-60
2021/01/01 04:21:56;;;;;;;12.97;8.43;;;-0.10;99.90;;;;;;2072975;28;20181;-61
2021/01/01 04:22:57;;;;;;;16.27;10.10;;;-0.20;99.90;;;;;;2072924;28;20664;-61
2021/01/01 04:23:57;;;;;;;14.90;9.03;;;-0.20;99.90;;;;;;2072840;28;20664;-60
2021/01/01 04:24:58;;;;;;;15.63;9.23;;;-0.20;99.90;;;;;;2072920;28;20182;-58
2021/01/01 04:25:59;;;;;;;14.63;9.23;;;-0.10;99.90;;;;;;2072452;28;20193;-60
2021/01/01 04:27:00;;;;;;;15.20;9.10;;;-0.10;99.90;;;;;;2072924;28;20659;-62
2021/01/01 04:28:00;;;;;;;14.70;8.97;;;-0.10;99.90;;;;;;2072770;28;20273;-60
2021/01/01 04:29:01;;;;;;;15.00;8.40;;;-0.10;99.90;;;;;;2072944;28;20259;-61
2021/01/01 04:30:03;;;;;;;12.23;8.60;;;-0.10;99.90;;;;;;2072911;28;20556;-61
2021/01/01 04:31:04;;;;;;;18.33;10.48;;;-0.20;99.90;;;;;;2072490;28;20185;-60
2021/01/01 04:32:05;;;;;;;18.47;10.60;;;-0.20;99.90;;;;;;2072715;28;20189;-62
2021/01/01 04:33:05;;;;;;;17.83;10.87;;;-0.20;99.90;;;;;;2072911;28;20186;-60
2021/01/01 04:34:07;;;;;;;16.57;10.03;;;-0.20;99.90;;;;;;2072645;28;20968;-61
2021/01/01 04:35:09;;;;;;;16.17;10.35;;;-0.20;99.90;;;;;;2072834;28;20177;-60
2021/01/01 04:36:09;;;;;;;16.00;9.35;;;-0.20;99.90;;;;;;2072599;28;20205;-61
2021/01/01 04:37:10;;;;;;;16.87;9.70;;;-0.20;99.90;;;;;;2072802;28;20532;-61
2021/01/01 04:38:11;;;;;;;18.00;10.80;;;-0.20;99.90;;;;;;2072627;28;20260;-61
2021/01/01 04:39:11;;;;;;;17.60;10.10;;;-0.20;99.90;;;;;;2072731;28;20181;-61
2021/01/01 04:40:13;;;;;;;13.33;8.63;;;-0.20;99.90;;;;;;2072694;28;20174;-61
2021/01/01 04:41:14;;;;;;;14.25;9.50;;;-0.20;99.90;;;;;;2071945;28;20221;-61
2021/01/01 04:42:15;;;;;;;15.50;9.67;;;-0.10;99.90;;;;;;2063953;28;20187;-61
2021/01/01 04:43:16;;;;;;;14.95;9.65;;;-0.20;99.90;;;;;;2064465;28;20182;-61
2021/01/01 04:44:17;;;;;;;14.73;8.77;;;-0.20;99.90;;;;;;2065113;28;20186;-62
2021/01/01 04:45:18;;;;;;;14.63;9.37;;;-0.20;99.90;;;;;;2065083;28;20194;-63
2021/01/01 04:46:19;;;;;;;15.47;9.30;;;-0.30;99.90;;;;;;2065268;28;20246;-61
2021/01/01 04:47:23;;;;;;;13.13;8.68;;;-0.40;99.90;;;;;;2073679;28;20267;-61
2021/01/01 04:48:24;;;;;;;14.60;9.40;;;-0.50;99.90;;;;;;2073698;28;20189;-61
2021/01/01 04:49:25;;;;;;;14.83;9.47;;;-0.60;99.90;;;;;;2065062;28;20579;-61
2021/01/01 04:50:25;;;;;;;13.85;8.90;;;-0.60;99.90;;;;;;2057125;28;20186;-61
2021/01/01 04:51:27;;;;;;;13.33;8.53;;;-0.70;99.90;;;;;;2064623;28;20820;-60
2021/01/01 04:52:33;;;;;;;15.48;9.15;;;-0.70;99.90;;;;;;2073623;28;20562;-61
2021/01/01 04:53:37;;;;;;;15.23;9.75;;;-0.70;99.90;;;;;;2072788;28;20190;-61
2021/01/01 04:54:44;;;;;;;17.98;10.80;;;-0.80;99.90;;;;;;2072757;28;20641;-59
2021/01/01 04:55:45;;;;;;;14.38;8.93;;;-0.80;99.90;;;;;;2073207;28;20211;-61
2021/01/01 04:56:47;;;;;;;14.90;9.30;;;-0.90;99.90;;;;;;2074331;28;20830;-61
2021/01/01 04:57:50;;;;;;;20.02;11.02;;;-1.00;99.90;;;;;;2074497;28;20253;-59
2021/01/01 04:58:53;;;;;;;16.27;10.25;;;-1.00;99.90;;;;;;2074367;28;20192;-60
2021/01/01 04:59:54;;;;;;;18.40;10.27;;;-1.00;99.90;;;;;;2074555;28;20200;-60
2021/01/01 05:00:55;;;;;;;17.40;11.10;;;-1.10;99.90;;;;;;2074088;28;20683;-61
2021/01/01 05:01:56;;;;;;;22.53;10.77;;;-1.10;99.90;;;;;;2074368;28;20184;-60
2021/01/01 05:02:56;;;;;;;17.17;10.43;;;-1.20;99.90;;;;;;2074379;28;20178;-60
2021/01/01 05:03:57;;;;;;;16.13;9.80;;;-1.20;99.90;;;;;;2074174;28;20178;-61
2021/01/01 05:04:57;;;;;;;21.63;11.03;;;-1.20;99.90;;;;;;2074380;28;20272;-61
2021/01/01 05:05:58;;;;;;;15.23;9.40;;;-1.20;99.90;;;;;;2074098;28;20204;-60
2021/01/01 05:07:00;;;;;;;20.23;11.67;;;-1.20;99.90;;;;;;2074202;28;20608;-61
2021/01/01 05:08:00;;;;;;;20.48;11.35;;;-1.10;99.90;;;;;;2074055;28;20178;-61
2021/01/01 05:09:03;;;;;;;18.47;10.70;;;-1.10;99.90;;;;;;2074581;28;20207;-61
2021/01/01 05:10:04;;;;;;;17.08;9.85;;;-1.10;99.90;;;;;;2080123;28;20180;-60
2021/01/01 05:11:07;;;;;;;17.63;10.55;;;-1.10;99.90;;;;;;2082045;28;20214;-61
2021/01/01 05:12:09;;;;;;;18.85;10.25;;;-1.00;99.90;;;;;;2082367;28;20260;-61